Map

Track Data

SID SEASON NUMBER BASIN SUBBASIN NAME ISO_TIME NATURE LAT LON WMO_WIND WMO_PRES WMO_AGENCY TRACK_TYPE DIST2LAND LANDFALL IFLAG USA_AGENCY USA_ATCF_ID USA_LAT USA_LON USA_RECORD USA_STATUS USA_WIND USA_PRES USA_SSHS USA_R34_NE USA_R34_SE USA_R34_SW USA_R34_NW USA_R50_NE USA_R50_SE USA_R50_SW USA_R50_NW USA_R64_NE USA_R64_SE USA_R64_SW USA_R64_NW USA_POCI USA_ROCI USA_RMW USA_EYE TOKYO_LAT TOKYO_LON TOKYO_GRADE TOKYO_WIND TOKYO_PRES TOKYO_R50_DIR TOKYO_R50_LONG TOKYO_R50_SHORT TOKYO_R30_DIR TOKYO_R30_LONG TOKYO_R30_SHORT TOKYO_LAND CMA_LAT CMA_LON CMA_CAT CMA_WIND CMA_PRES HKO_LAT HKO_LON HKO_CAT HKO_WIND HKO_PRES NEWDELHI_LAT NEWDELHI_LON NEWDELHI_GRADE NEWDELHI_WIND NEWDELHI_PRES NEWDELHI_CI NEWDELHI_DP NEWDELHI_POCI REUNION_LAT REUNION_LON REUNION_TYPE REUNION_WIND REUNION_PRES REUNION_TNUM REUNION_CI REUNION_RMW REUNION_R34_NE REUNION_R34_SE REUNION_R34_SW REUNION_R34_NW REUNION_R50_NE REUNION_R50_SE REUNION_R50_SW REUNION_R50_NW REUNION_R64_NE REUNION_R64_SE REUNION_R64_SW REUNION_R64_NW BOM_LAT BOM_LON BOM_TYPE BOM_WIND BOM_PRES BOM_TNUM BOM_CI BOM_RMW BOM_R34_NE BOM_R34_SE BOM_R34_SW BOM_R34_NW BOM_R50_NE BOM_R50_SE BOM_R50_SW BOM_R50_NW BOM_R64_NE BOM_R64_SE BOM_R64_SW BOM_R64_NW BOM_ROCI BOM_POCI BOM_EYE BOM_POS_METHOD BOM_PRES_METHOD NADI_LAT NADI_LON NADI_CAT NADI_WIND NADI_PRES WELLINGTON_LAT WELLINGTON_LON WELLINGTON_WIND WELLINGTON_PRES DS824_LAT DS824_LON DS824_STAGE DS824_WIND DS824_PRES TD9636_LAT TD9636_LON TD9636_STAGE TD9636_WIND TD9636_PRES TD9635_LAT TD9635_LON TD9635_WIND TD9635_PRES TD9635_ROCI NEUMANN_LAT NEUMANN_LON NEUMANN_CLASS NEUMANN_WIND NEUMANN_PRES MLC_LAT MLC_LON MLC_CLASS MLC_WIND MLC_PRES USA_GUST BOM_GUST BOM_GUST_PER REUNION_GUST REUNION_GUST_PER USA_SEAHGT USA_SEARAD_NE USA_SEARAD_SE USA_SEARAD_SW USA_SEARAD_NW STORM_SPEED STORM_DIR
1964127N12086 1964 31 NI BB NOT_NAMED 1964-05-05 18:00:00 TS 12.1000 85.9000 main 621 621 O________O____ jtwc_io IO011964 12.1000 85.9000 -1 12.1000 85.9000 TC 3 68
1964127N12086 1964 31 NI BB NOT_NAMED 1964-05-05 21:00:00 TS 12.1500 86.0200 main 632 630 P________P____ IO011964 12.1500 86.0200 -1 12.1500 86.0200 TC 3 71
1964127N12086 1964 31 NI BB NOT_NAMED 1964-05-06 00:00:00 TS 12.2000 86.2000 main 647 647 O________O____ jtwc_io IO011964 12.2000 86.2000 -1 12.2000 86.2000 TC 25 5 78
1964127N12086 1964 31 NI BB NOT_NAMED 1964-05-06 03:00:00 TS 12.2445 86.4800 main 668 660 P________PO___ IO011964 12.2500 86.4775 -1 12.2500 86.4775 TC 25 12.2000 86.5000 1 6 81
1964127N12086 1964 31 NI BB NOT_NAMED 1964-05-06 06:00:00 TS 12.2960 86.8012 main 683 683 O________OP___ jtwc_io IO011964 12.3000 86.8000 -1 12.3000 86.8000 TC 25 12.2800 86.8060 1 6 80
1964127N12086 1964 31 NI BB NOT_NAMED 1964-05-06 09:00:00 TS 12.3467 87.1027 main 706 698 P________PP___ IO011964 12.3425 87.1000 -1 12.3425 87.1000 TC 25 12.3579 87.1096 1 6 79
1964127N12086 1964 31 NI BB NOT_NAMED 1964-05-06 12:00:00 TS 12.4106 87.4028 main 722 722 O________OP___ jtwc_io IO011964 12.4000 87.4000 -1 12.4000 87.4000 TC 25 12.4318 87.4085 1 6 76
1964127N12086 1964 31 NI BB NOT_NAMED 1964-05-06 15:00:00 TS 12.4950 87.7000 main 740 740 P________PO___ IO011964 12.4925 87.7000 -1 12.4925 87.7000 TC 25 12.5000 87.7000 1 6 73
1964127N12086 1964 31 NI BB NOT_NAMED 1964-05-06 18:00:00 TS 12.5880 87.9947 main 759 735 O________OP___ jtwc_io IO011964 12.6000 88.0000 -1 12.6000 88.0000 TC 25 12.5641 87.9841 1 6 73
1964127N12086 1964 31 NI BB NOT_NAMED 1964-05-06 21:00:00 TS 12.6749 88.2902 main 735 701 P________PP___ IO011964 12.6925 88.3000 -1 12.6925 88.3000 TC 30 12.6397 88.2706 1 6 72
1964127N12086 1964 31 NI BB NOT_NAMED 1964-05-07 00:00:00 TS 12.7818 88.5906 main 701 668 O________OP___ jtwc_io IO011964 12.8000 88.6000 -1 12.8000 88.6000 TC 35 12.7453 88.5718 1 6 68
1964127N12086 1964 31 NI BB NOT_NAMED 1964-05-07 03:00:00 TS 12.9133 88.8851 main 668 628 P________PO___ IO011964 12.9199 88.8777 -1 12.9199 88.8777 TC 35 12.9000 88.9000 2 7 62
1964127N12086 1964 31 NI BB NOT_NAMED 1964-05-07 06:00:00 TS 13.1042 89.2251 main 628 574 O________OP___ jtwc_io IO011964 13.1000 89.2000 -1 13.1000 89.2000 TC 35 13.1126 89.2753 2 9 58
1964127N12086 1964 31 NI BB NOT_NAMED 1964-05-07 09:00:00 TS 13.3767 89.6491 main 574 510 P________PP___ IO011964 13.3776 89.6349 -1 13.3776 89.6349 TC 35 13.3751 89.6775 2 10 55
1964127N12086 1964 31 NI BB NOT_NAMED 1964-05-07 12:00:00 TS 13.6917 90.0970 main 510 456 O________OP___ jtwc_io IO011964 13.7000 90.1000 -1 13.7000 90.1000 TC 35 13.6751 90.0910 2 10 53
1964127N12086 1964 31 NI BB NOT_NAMED 1964-05-07 15:00:00 TS 14.0000 90.5101 main 456 402 P________PO___ IO011964 13.9999 90.5151 -1 13.9999 90.5151 TC 35 14.0000 90.5000 3 10 53
1964127N12086 1964 31 NI BB NOT_NAMED 1964-05-07 18:00:00 TS 14.2838 90.8985 main 402 363 O________OP___ jtwc_io IO011964 14.3000 90.9000 -1 14.3000 90.9000 TC 35 14.2513 90.8954 3 9 53
1964127N12086 1964 31 NI BB NOT_NAMED 1964-05-07 21:00:00 TS 14.5483 91.2658 main 353 304 P________PP___ IO011964 14.5549 91.2579 -1 14.5549 91.2579 TC 35 14.5351 91.2816 3 9 48
1964127N12086 1964 31 NI BB NOT_NAMED 1964-05-08 00:00:00 TS 14.9004 91.6173 main 304 244 O________OP___ jtwc_io IO011964 14.9000 91.6000 -1 14.9000 91.6000 TC 35 14.9013 91.6519 3 11 38
1964127N12086 1964 31 NI BB NOT_NAMED 1964-05-08 03:00:00 TS 15.4117 91.9717 main 244 203 P________PO___ IO011964 15.4175 91.9576 -1 15.4175 91.9576 TC 35 15.4000 92.0000 3 14 29
1964127N12086 1964 31 NI BB NOT_NAMED 1964-05-08 06:00:00 TS 16.0935 92.3138 main 203 182 O________OP___ jtwc_io IO011964 16.1000 92.3000 -1 16.1000 92.3000 TC 35 16.0804 92.3413 3 16 23
1964127N12086 1964 31 NI BB NOT_NAMED 1964-05-08 09:00:00 TS 16.9009 92.6298 main 186 158 P________PP___ IO011964 16.9050 92.6151 -1 16.9050 92.6151 TC 35 16.8928 92.6593 3 18 19
1964127N12086 1964 31 NI BB NOT_NAMED 1964-05-08 12:00:00 TS 17.7946 92.9159 main 153 69 O________OP___ jtwc_io IO011964 17.8000 92.9000 -1 17.8000 92.9000 TC 35 17.7837 92.9477 3 19 16
1964127N12086 1964 31 NI BB NOT_NAMED 1964-05-08 15:00:00 TS 18.7000 93.1768 main 62 23 P________PO___ IO011964 18.7000 93.1652 -1 18.7000 93.1652 TC 35 18.7000 93.2000 3 19 14
1964127N12086 1964 31 NI BB NOT_NAMED 1964-05-08 18:00:00 TS 19.5995 93.4049 main 23 0 O________OP___ jtwc_io IO011964 19.6000 93.4000 -1 19.6000 93.4000 TC 35 19.5987 93.4122 3 18 13
1964127N12086 1964 31 NI BB NOT_NAMED 1964-05-08 21:00:00 TS 20.4687 93.6007 main 0 0 P________PP___ IO011964 20.4625 93.6071 -1 20.4625 93.6071 TC 30 20.4770 93.5921 3 18 11
1964127N12086 1964 31 NI BB NOT_NAMED 1964-05-09 00:00:00 TS 21.3210 93.7755 main 0 0 O________OP___ jtwc_io IO011964 21.3000 93.8000 -1 21.3000 93.8000 TC 25 21.3419 93.7510 3 18 9
1964127N12086 1964 31 NI BB NOT_NAMED 1964-05-09 03:00:00 NR 22.2000 93.9000 main 0 __________O___ IO011964 -1 TC 22.2000 93.9000 1 18 7

About IBTrACS Database

This database is a web-friendly format of International Best Track Archive for Climate Stewardship (IBTrACS), a global best track data archive curated by NOAA dating back to 1842.

Updated: 2021-10-08